Time;durP1;ratioP1;P1;durP2;ratioP2;P2;SDS_P1;SDS_P2;PMS_P1;PMS_P2;Temp;Humidity;BMP_temperature;BMP_pressure;BME280_temperature;BME280_humidity;BME280_pressure;Samples;Min_cycle;Max_cycle;Signal;HPM_P1;HPM_P2
2021/12/09 00:01:25;;;;;;;0.80;0.80;;;0.70;99.90;;;;;;4978219;28;20043;-87
2021/12/09 00:03:57;;;;;;;0.90;0.90;;;0.70;99.90;;;;;;4969072;28;20051;-87
2021/12/09 00:06:27;;;;;;;0.70;0.70;;;0.70;99.90;;;;;;4955156;28;20070;-87
2021/12/09 00:08:54;;;;;;;0.88;0.88;;;0.70;99.90;;;;;;4966037;28;20093;-88
2021/12/09 00:11:20;;;;;;;0.90;0.90;;;0.70;99.90;;;;;;4963948;28;20043;-87
2021/12/09 00:13:46;;;;;;;1.65;1.13;;;0.70;99.90;;;;;;4956191;29;20047;-87
2021/12/09 00:16:12;;;;;;;0.82;0.82;;;0.70;99.90;;;;;;4977582;28;20042;-88
2021/12/09 00:18:38;;;;;;;0.90;0.90;;;0.70;99.90;;;;;;4970358;28;20049;-85
2021/12/09 00:21:03;;;;;;;0.90;0.90;;;0.60;99.90;;;;;;4960164;28;20047;-85
2021/12/09 00:23:29;;;;;;;0.90;0.90;;;0.60;99.90;;;;;;4977060;28;20133;-86
2021/12/09 00:25:55;;;;;;;0.90;0.90;;;0.60;99.90;;;;;;4962798;28;20043;-87
2021/12/09 00:28:20;;;;;;;0.90;0.90;;;0.60;99.90;;;;;;4967742;28;20051;-86
2021/12/09 00:30:46;;;;;;;0.80;0.80;;;0.60;99.90;;;;;;4957771;28;20070;-86
2021/12/09 00:33:15;;;;;;;0.80;0.80;;;0.60;99.90;;;;;;4973147;28;20038;-87
2021/12/09 00:35:44;;;;;;;1.05;1.05;;;0.60;99.90;;;;;;4949501;29;20051;-85
2021/12/09 00:38:19;;;;;;;0.90;0.90;;;0.60;99.90;;;;;;4958475;28;20050;-85
2021/12/09 00:40:44;;;;;;;1.17;1.10;;;0.50;99.90;;;;;;4966529;28;20575;-86
2021/12/09 00:43:10;;;;;;;0.90;0.90;;;0.50;99.90;;;;;;4958656;28;20170;-86
2021/12/09 00:45:37;;;;;;;1.10;1.10;;;0.50;99.90;;;;;;4955821;28;20027;-86
2021/12/09 00:48:02;;;;;;;1.00;1.00;;;0.50;99.90;;;;;;4958716;28;20039;-85
2021/12/09 00:50:29;;;;;;;1.02;1.02;;;0.50;99.90;;;;;;4958987;28;20507;-85
2021/12/09 00:52:55;;;;;;;0.90;0.90;;;0.50;99.90;;;;;;4969877;28;20070;-86
2021/12/09 00:55:20;;;;;;;0.82;0.82;;;0.50;99.90;;;;;;4972746;28;20063;-86
2021/12/09 00:57:46;;;;;;;0.80;0.80;;;0.40;99.90;;;;;;4950163;28;20043;-86
2021/12/09 01:00:18;;;;;;;1.23;1.13;;;0.50;99.90;;;;;;4959964;28;20062;-85
2021/12/09 01:02:44;;;;;;;0.90;0.90;;;0.50;99.90;;;;;;4962974;28;20061;-86
2021/12/09 01:05:10;;;;;;;0.95;0.95;;;0.50;99.90;;;;;;4960836;28;20050;-87
2021/12/09 01:07:37;;;;;;;0.80;0.80;;;0.50;99.90;;;;;;4955885;28;20138;-86
2021/12/09 01:10:05;;;;;;;0.90;0.90;;;0.50;99.90;;;;;;4965268;28;20152;-87
2021/12/09 01:12:31;;;;;;;1.00;1.00;;;0.60;99.90;;;;;;4956974;28;20049;-86
2021/12/09 01:14:57;;;;;;;1.15;1.10;;;0.60;99.90;;;;;;4952043;28;20114;-85
2021/12/09 01:17:22;;;;;;;0.90;0.90;;;0.60;99.90;;;;;;4979791;28;20035;-86
2021/12/09 01:19:48;;;;;;;0.90;0.90;;;0.50;99.90;;;;;;4956791;28;20074;-86
2021/12/09 01:22:14;;;;;;;1.55;1.45;;;0.50;99.90;;;;;;4960596;28;20106;-86
2021/12/09 01:24:40;;;;;;;0.82;0.82;;;0.50;99.90;;;;;;4952571;28;20047;-86
2021/12/09 01:27:06;;;;;;;0.90;0.90;;;0.50;99.90;;;;;;4954624;28;20042;-86
2021/12/09 01:29:39;;;;;;;0.90;0.90;;;0.50;99.90;;;;;;4965100;28;20043;-87
2021/12/09 01:32:08;;;;;;;0.95;0.95;;;0.40;99.90;;;;;;4963414;28;20582;-86
2021/12/09 01:34:36;;;;;;;0.90;0.90;;;0.40;99.90;;;;;;4957315;28;20150;-86
2021/12/09 01:37:02;;;;;;;2.25;1.23;;;0.40;99.90;;;;;;4952659;28;20034;-86
2021/12/09 01:39:30;;;;;;;0.80;0.80;;;0.40;99.90;;;;;;4978847;28;20106;-87
2021/12/09 01:41:56;;;;;;;0.93;0.93;;;0.40;99.90;;;;;;4967593;28;20147;-86
2021/12/09 01:44:22;;;;;;;0.90;0.90;;;0.40;99.90;;;;;;4977694;28;20051;-87
2021/12/09 01:46:48;;;;;;;1.00;1.00;;;0.40;99.90;;;;;;4955709;28;20042;-87
2021/12/09 01:49:14;;;;;;;1.63;1.52;;;0.40;99.90;;;;;;4966539;28;20047;-87
2021/12/09 01:51:41;;;;;;;1.02;1.02;;;0.30;99.90;;;;;;4976977;28;20035;-87
2021/12/09 01:54:07;;;;;;;1.10;1.00;;;0.30;99.90;;;;;;4961659;28;20050;-87
2021/12/09 01:56:33;;;;;;;0.80;0.80;;;0.30;99.90;;;;;;4967738;28;20630;-87
2021/12/09 01:59:03;;;;;;;0.80;0.80;;;0.30;99.90;;;;;;4953057;28;20091;-87
2021/12/09 02:01:29;;;;;;;1.10;1.08;;;0.30;99.90;;;;;;4960002;28;20035;-87
2021/12/09 02:03:55;;;;;;;0.80;0.80;;;0.30;99.90;;;;;;4966483;28;20477;-85
2021/12/09 02:06:23;;;;;;;0.82;0.82;;;0.30;99.90;;;;;;4973373;28;20093;-85
2021/12/09 02:08:49;;;;;;;0.98;0.98;;;0.20;99.90;;;;;;4953882;28;20675;-86
2021/12/09 02:11:15;;;;;;;0.80;0.80;;;0.20;99.90;;;;;;4970561;28;20055;-86
2021/12/09 02:13:41;;;;;;;2.05;1.10;;;0.70;99.90;;;;;;4960774;28;20043;-86
2021/12/09 02:16:08;;;;;;;1.13;1.10;;;0.20;99.90;;;;;;4971123;28;20130;-86
2021/12/09 02:18:34;;;;;;;1.13;1.13;;;0.20;99.90;;;;;;4950666;28;20090;-86
2021/12/09 02:21:14;;;;;;;0.90;0.90;;;0.20;99.90;;;;;;4973352;28;20040;-86
2021/12/09 02:24:05;;;;;;;1.00;1.00;;;0.20;99.90;;;;;;4960118;28;20039;-86
2021/12/09 02:26:37;;;;;;;0.85;0.85;;;0.10;99.90;;;;;;4965744;28;20392;-87
2021/12/09 02:29:06;;;;;;;0.90;0.90;;;0.10;99.90;;;;;;4953052;28;20054;-86
2021/12/09 02:31:32;;;;;;;0.80;0.80;;;0.10;99.90;;;;;;4962769;28;20829;-87
2021/12/09 02:34:22;;;;;;;1.10;1.10;;;0.10;99.90;;;;;;4961604;28;20055;-87
2021/12/09 02:37:29;;;;;;;2.35;1.00;;;0.10;99.90;;;;;;4963418;28;20113;-87
2021/12/09 02:40:03;;;;;;;0.90;0.90;;;0.00;99.90;;;;;;4958798;28;20057;-87
2021/12/09 02:42:29;;;;;;;;;;;0.00;99.90;;;;;;4973232;28;20744;-87
2021/12/09 02:44:56;;;;;;;1.00;1.00;;;0.00;99.90;;;;;;4972948;28;19982;-86
2021/12/09 02:47:22;;;;;;;1.30;1.20;;;0.00;99.90;;;;;;4965786;28;20035;-87
2021/12/09 02:49:48;;;;;;;0.85;0.85;;;0.00;99.90;;;;;;4960968;28;20067;-87
2021/12/09 02:52:14;;;;;;;0.90;0.90;;;-0.10;99.90;;;;;;4962873;28;20050;-87
2021/12/09 02:54:39;;;;;;;0.80;0.80;;;-0.10;99.90;;;;;;4955155;28;20031;-87
2021/12/09 02:57:07;;;;;;;1.35;1.25;;;-0.10;99.90;;;;;;4954370;29;20110;-87
2021/12/09 02:59:33;;;;;;;0.90;0.90;;;-0.10;99.90;;;;;;4963391;28;20047;-87
2021/12/09 03:02:01;;;;;;;1.52;1.42;;;-0.10;99.90;;;;;;4974778;28;20047;-86
2021/12/09 03:04:42;;;;;;;0.90;0.90;;;-0.10;99.90;;;;;;4967109;28;20430;-87
2021/12/09 03:07:26;;;;;;;1.00;0.98;;;-0.10;99.90;;;;;;4955563;28;20043;-87
2021/12/09 03:09:58;;;;;;;0.90;0.90;;;-0.20;99.90;;;;;;4965939;28;20138;-87
2021/12/09 03:12:33;;;;;;;0.88;0.88;;;-0.10;99.90;;;;;;4961998;28;20043;-86
2021/12/09 03:15:00;;;;;;;0.93;0.93;;;-0.10;99.90;;;;;;4954811;28;20073;-87
2021/12/09 03:17:26;;;;;;;1.02;1.02;;;-0.20;99.90;;;;;;4949117;28;20409;-86
2021/12/09 03:19:53;;;;;;;1.00;1.00;;;-0.10;99.90;;;;;;4974891;28;20074;-86
2021/12/09 03:22:20;;;;;;;0.90;0.90;;;-0.20;99.90;;;;;;4972320;28;20066;-86
2021/12/09 03:24:47;;;;;;;0.90;0.90;;;-0.10;99.90;;;;;;4961317;28;20050;-86
2021/12/09 03:27:13;;;;;;;0.98;0.98;;;-0.20;99.90;;;;;;4974429;28;20377;-86
2021/12/09 03:29:40;;;;;;;0.90;0.90;;;-0.20;99.90;;;;;;4957218;28;20070;-86
2021/12/09 03:32:10;;;;;;;0.90;0.90;;;-0.20;99.90;;;;;;4954586;28;20045;-86
2021/12/09 03:34:37;;;;;;;0.90;0.90;;;-0.20;99.90;;;;;;4966773;28;20125;-87
2021/12/09 03:37:06;;;;;;;0.90;0.90;;;-0.20;99.90;;;;;;4975023;28;20039;-86
2021/12/09 03:39:35;;;;;;;0.90;0.90;;;-0.20;99.90;;;;;;4962415;28;20062;-85
2021/12/09 03:42:02;;;;;;;1.00;1.00;;;-0.30;99.90;;;;;;4956150;28;20039;-85
2021/12/09 03:44:28;;;;;;;1.17;1.08;;;-0.30;99.90;;;;;;4952322;28;20222;-86
2021/12/09 03:46:56;;;;;;;1.00;1.00;;;-0.30;99.90;;;;;;4960197;28;20045;-85
2021/12/09 03:49:23;;;;;;;0.90;0.90;;;-0.30;99.90;;;;;;4955308;29;20051;-85
2021/12/09 03:51:50;;;;;;;1.75;1.65;;;;;;;;;;4978616;28;20047;-85
2021/12/09 03:54:15;;;;;;;1.42;1.10;;;-0.30;99.90;;;;;;4965309;28;20046;-86
2021/12/09 03:56:41;;;;;;;1.00;1.00;;;-0.30;99.90;;;;;;4970776;28;20066;-86
2021/12/09 03:59:08;;;;;;;0.88;0.88;;;-0.30;99.90;;;;;;4948318;29;20082;-87
2021/12/09 04:01:36;;;;;;;1.17;1.15;;;-0.40;99.90;;;;;;4969159;28;20078;-86
2021/12/09 04:04:02;;;;;;;0.90;0.90;;;-0.40;99.90;;;;;;4979768;28;20046;-86
2021/12/09 04:06:29;;;;;;;1.00;1.00;;;-0.40;99.90;;;;;;4963497;28;20046;-86
2021/12/09 04:08:55;;;;;;;0.90;0.90;;;-0.40;99.90;;;;;;4955349;28;20034;-86
2021/12/09 04:11:21;;;;;;;0.95;0.95;;;-0.40;99.90;;;;;;4964710;28;20062;-86
2021/12/09 04:13:47;;;;;;;0.90;0.90;;;-0.10;99.90;;;;;;4957409;28;20035;-86
2021/12/09 04:16:13;;;;;;;1.10;1.00;;;-0.40;99.90;;;;;;4958338;29;20091;-86
2021/12/09 04:18:41;;;;;;;0.90;0.90;;;-0.30;99.90;;;;;;4973352;28;20035;-86
2021/12/09 04:21:06;;;;;;;0.90;0.90;;;-0.40;99.90;;;;;;4956873;28;20080;-86
2021/12/09 04:23:33;;;;;;;0.93;0.93;;;-0.40;99.90;;;;;;4959973;28;20122;-87
2021/12/09 04:25:59;;;;;;;1.30;1.25;;;-0.30;99.90;;;;;;4969888;28;20035;-86
2021/12/09 04:28:25;;;;;;;0.98;0.98;;;-0.30;99.90;;;;;;4978490;28;20100;-86
2021/12/09 04:30:51;;;;;;;0.90;0.90;;;-0.40;99.90;;;;;;4977574;28;20071;-86
2021/12/09 04:33:17;;;;;;;1.02;1.02;;;-0.50;99.90;;;;;;4957538;28;20720;-86
2021/12/09 04:35:42;;;;;;;0.80;0.80;;;-0.40;99.90;;;;;;4956234;28;20066;-86
2021/12/09 04:38:08;;;;;;;0.90;0.90;;;-0.40;99.90;;;;;;4972646;28;20487;-86
2021/12/09 04:40:34;;;;;;;1.55;1.45;;;;;;;;;;4954532;28;20089;-86
2021/12/09 04:43:02;;;;;;;0.90;0.90;;;-0.40;99.90;;;;;;4949618;28;20066;-87
2021/12/09 04:45:30;;;;;;;1.60;1.50;;;-0.40;99.90;;;;;;4954017;29;20128;-87
2021/12/09 04:47:57;;;;;;;1.95;1.85;;;-0.40;99.90;;;;;;4966576;28;20524;-87
2021/12/09 04:50:23;;;;;;;0.90;0.90;;;-0.40;99.90;;;;;;4971495;28;20043;-87
2021/12/09 04:52:49;;;;;;;0.90;0.90;;;-0.30;99.90;;;;;;4966943;28;20042;-87
2021/12/09 04:55:15;;;;;;;1.00;1.00;;;-0.30;99.90;;;;;;4964205;28;20089;-87
2021/12/09 04:57:42;;;;;;;2.88;1.20;;;-0.20;99.90;;;;;;4947900;28;20070;-87
2021/12/09 05:00:14;;;;;;;0.98;0.98;;;-0.40;99.90;;;;;;4965049;28;20101;-87
2021/12/09 05:05:12;;;;;;;1.20;1.10;;;-0.40;99.90;;;;;;4973875;28;20059;-87
2021/12/09 05:07:37;;;;;;;1.00;1.00;;;-0.50;99.90;;;;;;4972254;28;20053;-87
2021/12/09 05:10:04;;;;;;;1.33;1.27;;;-0.50;99.90;;;;;;4963514;28;20054;-86
2021/12/09 05:12:29;;;;;;;0.95;0.95;;;-0.40;99.90;;;;;;4956607;29;20139;-87
2021/12/09 05:14:55;;;;;;;0.88;0.88;;;-0.50;99.90;;;;;;4948381;28;20515;-87
2021/12/09 05:17:22;;;;;;;1.10;1.10;;;-0.50;99.90;;;;;;4955147;28;20049;-84
2021/12/09 05:19:47;;;;;;;0.88;0.88;;;-0.30;99.90;;;;;;4966854;28;20121;-85
2021/12/09 05:22:13;;;;;;;1.25;1.02;;;-0.50;99.90;;;;;;4980509;28;20043;-86
2021/12/09 05:24:40;;;;;;;1.45;1.38;;;-0.50;99.90;;;;;;4958895;28;20082;-86
2021/12/09 05:27:07;;;;;;;1.10;1.10;;;-0.50;99.90;;;;;;4975715;28;20468;-85
2021/12/09 05:29:39;;;;;;;0.90;0.90;;;-0.60;99.90;;;;;;4968764;28;20062;-86
2021/12/09 05:32:11;;;;;;;1.00;1.00;;;-0.60;99.90;;;;;;4965235;28;20054;-86
2021/12/09 05:34:45;;;;;;;1.20;1.10;;;-0.60;99.90;;;;;;4962104;28;20038;-86
2021/12/09 05:37:23;;;;;;;1.50;1.40;;;-0.60;99.90;;;;;;4971202;28;20089;-86
2021/12/09 05:39:50;;;;;;;0.90;0.90;;;-0.60;99.90;;;;;;4962186;28;20452;-86
2021/12/09 05:42:19;;;;;;;1.15;1.05;;;-0.60;99.90;;;;;;4964617;28;20043;-87
2021/12/09 05:44:45;;;;;;;0.90;0.90;;;-0.70;99.90;;;;;;4972681;28;20037;-86
2021/12/09 05:47:12;;;;;;;1.00;1.00;;;-0.70;99.90;;;;;;4961346;28;20058;-86
2021/12/09 05:49:41;;;;;;;1.02;1.02;;;-0.70;99.90;;;;;;4964338;28;20058;-86
2021/12/09 05:52:08;;;;;;;1.08;1.08;;;-0.70;99.90;;;;;;4945428;29;20043;-86
2021/12/09 05:54:34;;;;;;;0.90;0.90;;;-0.70;99.90;;;;;;4963628;28;20045;-86
2021/12/09 05:57:00;;;;;;;0.90;0.90;;;-0.70;99.90;;;;;;4966398;28;20104;-86
2021/12/09 05:59:27;;;;;;;1.00;1.00;;;-0.70;99.90;;;;;;4954537;28;20042;-87
2021/12/09 06:01:53;;;;;;;1.00;1.00;;;;;;;;;;4965147;28;20463;-87
2021/12/09 06:04:19;;;;;;;1.10;1.10;;;-0.80;99.90;;;;;;4966172;28;20047;-86
2021/12/09 06:06:45;;;;;;;1.55;1.45;;;-0.80;99.90;;;;;;4963438;28;20364;-86
2021/12/09 06:09:11;;;;;;;1.15;1.10;;;-0.80;99.90;;;;;;4967299;28;20094;-86
2021/12/09 06:11:39;;;;;;;1.00;1.00;;;-0.60;99.90;;;;;;4960843;28;20062;-87
2021/12/09 06:14:06;;;;;;;1.45;1.27;;;-0.80;99.90;;;;;;4967520;28;20050;-86
2021/12/09 06:16:32;;;;;;;1.23;1.13;;;-0.80;99.90;;;;;;4958077;28;20070;-87
2021/12/09 06:18:57;;;;;;;1.00;1.00;;;-0.90;99.90;;;;;;4954373;28;20097;-85
2021/12/09 06:21:27;;;;;;;1.35;1.25;;;-0.90;99.90;;;;;;4948952;28;20043;-86
2021/12/09 06:23:54;;;;;;;1.00;1.00;;;-0.90;99.90;;;;;;4959448;28;20586;-86
2021/12/09 06:26:20;;;;;;;0.90;0.90;;;-0.90;99.90;;;;;;4947947;28;20044;-85
2021/12/09 06:28:46;;;;;;;0.90;0.90;;;-0.90;99.90;;;;;;4946447;28;20051;-85
2021/12/09 06:31:12;;;;;;;1.10;1.10;;;-0.80;99.90;;;;;;4969078;28;20047;-85
2021/12/09 06:33:38;;;;;;;1.02;1.02;;;-0.90;99.90;;;;;;4951029;29;20077;-85
2021/12/09 06:36:03;;;;;;;0.93;0.93;;;-0.90;99.90;;;;;;4970140;28;20077;-85
2021/12/09 06:38:30;;;;;;;0.80;0.80;;;-1.00;99.90;;;;;;4966463;28;20077;-85
2021/12/09 06:40:55;;;;;;;1.00;1.00;;;-0.80;99.90;;;;;;4974378;28;20043;-85
2021/12/09 06:43:22;;;;;;;1.35;1.25;;;-1.00;99.90;;;;;;4953860;28;20126;-85
2021/12/09 06:45:48;;;;;;;1.00;1.00;;;-1.00;99.90;;;;;;4961644;28;20050;-85
2021/12/09 06:48:14;;;;;;;0.80;0.80;;;-1.00;99.90;;;;;;4962175;28;20127;-85
2021/12/09 06:50:40;;;;;;;1.05;1.05;;;-1.00;99.90;;;;;;4969125;28;20547;-85
2021/12/09 06:53:06;;;;;;;0.88;0.88;;;-1.00;99.90;;;;;;4961745;28;20038;-86
2021/12/09 06:55:32;;;;;;;1.80;1.70;;;-1.10;99.90;;;;;;4970567;28;20087;-86
2021/12/09 06:57:58;;;;;;;1.00;1.00;;;-0.90;99.90;;;;;;4955513;29;20039;-86
2021/12/09 07:00:27;;;;;;;1.08;1.08;;;-1.10;99.90;;;;;;4975201;28;20342;-86
2021/12/09 07:02:53;;;;;;;1.45;1.38;;;-1.00;99.90;;;;;;4981224;28;20043;-86
2021/12/09 07:05:21;;;;;;;1.30;1.20;;;-1.10;99.90;;;;;;4974916;28;20046;-84
2021/12/09 07:07:48;;;;;;;1.40;1.30;;;-1.10;99.90;;;;;;4960590;28;20070;-84
2021/12/09 07:10:14;;;;;;;1.23;1.13;;;-1.00;99.90;;;;;;4961311;28;20047;-85
2021/12/09 07:12:40;;;;;;;1.10;1.10;;;-1.00;99.90;;;;;;4974451;28;20095;-83
2021/12/09 07:15:09;;;;;;;0.90;0.90;;;-1.00;99.90;;;;;;4968660;28;20046;-83
2021/12/09 07:17:35;;;;;;;1.10;1.10;;;-1.00;99.90;;;;;;4965389;28;20090;-85
2021/12/09 07:20:01;;;;;;;1.17;1.10;;;-1.00;99.90;;;;;;4963903;28;20102;-84
2021/12/09 07:22:27;;;;;;;1.30;1.20;;;-1.00;99.90;;;;;;4973502;28;20054;-84
2021/12/09 07:24:53;;;;;;;0.80;0.80;;;-1.10;99.90;;;;;;4953466;29;20051;-84
2021/12/09 07:27:18;;;;;;;1.40;1.30;;;-1.00;99.90;;;;;;4966085;28;20059;-85
2021/12/09 07:29:44;;;;;;;1.17;1.17;;;-1.10;99.90;;;;;;4974122;28;20440;-85
2021/12/09 07:32:10;;;;;;;0.90;0.90;;;-1.10;99.90;;;;;;4955508;29;20064;-85
2021/12/09 07:34:36;;;;;;;0.90;0.90;;;-1.10;99.90;;;;;;4965120;28;20552;-85
2021/12/09 07:37:04;;;;;;;1.10;1.10;;;-1.10;99.90;;;;;;4956905;28;20043;-85
2021/12/09 07:39:32;;;;;;;1.00;1.00;;;-1.10;99.90;;;;;;4950165;28;20054;-83
2021/12/09 07:41:59;;;;;;;1.00;1.00;;;-1.00;99.90;;;;;;4969200;28;20047;-83
2021/12/09 07:44:30;;;;;;;0.98;0.98;;;-1.20;99.90;;;;;;4955262;28;20560;-84
2021/12/09 07:46:57;;;;;;;0.88;0.88;;;-1.20;99.90;;;;;;4974152;28;20043;-83
2021/12/09 07:49:23;;;;;;;0.85;0.85;;;-1.10;99.90;;;;;;4977907;28;20058;-84
2021/12/09 07:51:49;;;;;;;0.93;0.93;;;-1.10;99.90;;;;;;4975340;28;20034;-83
2021/12/09 07:54:16;;;;;;;1.00;1.00;;;-1.10;99.90;;;;;;4962694;28;20074;-83
2021/12/09 07:56:42;;;;;;;1.13;1.13;;;-1.10;99.90;;;;;;4957149;28;20117;-85
2021/12/09 07:59:08;;;;;;;0.85;0.85;;;-1.00;99.90;;;;;;4974256;28;20130;-83
2021/12/09 08:01:34;;;;;;;0.93;0.93;;;-1.10;99.90;;;;;;4970077;28;20057;-83
2021/12/09 08:04:01;;;;;;;1.00;1.00;;;-1.00;99.90;;;;;;4963336;28;20040;-84
2021/12/09 08:06:27;;;;;;;1.83;1.63;;;-1.00;99.90;;;;;;4967323;28;20094;-84
2021/12/09 08:08:53;;;;;;;1.05;1.05;;;-1.00;99.90;;;;;;4970188;28;20085;-85
2021/12/09 08:11:18;;;;;;;1.42;1.33;;;-1.00;99.90;;;;;;4963576;28;20125;-87
2021/12/09 08:13:44;;;;;;;1.38;1.27;;;-1.00;99.90;;;;;;4960630;28;20065;-86
2021/12/09 08:16:09;;;;;;;1.42;1.33;;;-0.90;99.90;;;;;;4970782;28;20374;-85
2021/12/09 08:18:58;;;;;;;0.93;0.93;;;-0.90;99.90;;;;;;4973009;28;20039;-87
2021/12/09 08:21:25;;;;;;;1.00;1.00;;;-0.80;99.90;;;;;;4969435;28;20081;-87
2021/12/09 08:23:51;;;;;;;0.80;0.80;;;-0.80;99.90;;;;;;4954508;28;20054;-86
2021/12/09 08:26:18;;;;;;;1.83;1.45;;;-0.90;99.90;;;;;;4959179;28;20695;-86
2021/12/09 08:28:44;;;;;;;1.30;1.20;;;-0.80;99.90;;;;;;4948484;29;20110;-86
2021/12/09 08:31:09;;;;;;;1.00;1.00;;;-0.80;99.90;;;;;;4961099;28;20069;-86
2021/12/09 08:33:35;;;;;;;3.83;1.60;;;-0.80;99.90;;;;;;4959323;28;20104;-87
2021/12/09 08:36:01;;;;;;;1.00;1.00;;;-0.80;99.90;;;;;;4977945;28;20043;-87
2021/12/09 08:38:27;;;;;;;1.00;1.00;;;-0.80;99.90;;;;;;4957207;28;20129;-84
2021/12/09 08:40:53;;;;;;;0.95;0.95;;;-0.80;99.90;;;;;;4952970;28;20039;-84
2021/12/09 08:43:20;;;;;;;1.00;1.00;;;-0.80;99.90;;;;;;4969063;28;20096;-85
2021/12/09 08:45:48;;;;;;;1.00;1.00;;;-0.70;99.90;;;;;;4947531;28;20043;-85
2021/12/09 08:48:14;;;;;;;1.10;1.10;;;-0.70;99.90;;;;;;4964310;28;20047;-84
2021/12/09 08:50:43;;;;;;;1.00;1.00;;;-0.70;99.90;;;;;;4959454;28;20117;-84
2021/12/09 08:53:10;;;;;;;0.90;0.90;;;-0.70;99.90;;;;;;4966050;28;20102;-85
2021/12/09 08:55:37;;;;;;;1.02;1.02;;;-0.60;99.90;;;;;;4960413;28;20042;-83
2021/12/09 08:58:03;;;;;;;1.42;1.33;;;-0.60;99.90;;;;;;4970661;28;20082;-84
2021/12/09 09:00:30;;;;;;;1.02;1.02;;;-0.50;99.90;;;;;;4962558;28;20142;-84
2021/12/09 09:02:56;;;;;;;1.00;1.00;;;-0.50;99.90;;;;;;4953475;28;20093;-84
2021/12/09 09:05:21;;;;;;;1.00;1.00;;;-0.50;99.90;;;;;;4976540;28;20062;-84
2021/12/09 09:07:49;;;;;;;1.48;1.38;;;-0.50;99.90;;;;;;4961326;28;20043;-83
2021/12/09 09:10:18;;;;;;;1.00;1.00;;;-0.50;99.90;;;;;;4977641;28;20042;-83
2021/12/09 09:12:43;;;;;;;1.00;1.00;;;-0.40;99.90;;;;;;4955906;28;20058;-85
2021/12/09 09:15:12;;;;;;;1.00;1.00;;;-0.40;99.90;;;;;;4962267;28;20043;-85
2021/12/09 09:17:38;;;;;;;1.10;1.10;;;-0.40;99.90;;;;;;4964524;28;20058;-85
2021/12/09 09:20:06;;;;;;;0.82;0.82;;;-0.30;99.90;;;;;;4970032;28;20252;-84
2021/12/09 09:22:32;;;;;;;1.30;1.20;;;-0.30;99.90;;;;;;4965625;28;20043;-85
2021/12/09 09:24:58;;;;;;;0.93;0.93;;;-0.30;99.90;;;;;;4964554;28;20050;-85
2021/12/09 09:27:23;;;;;;;0.90;0.90;;;-0.20;99.90;;;;;;4964077;28;20089;-84
2021/12/09 09:29:50;;;;;;;1.00;1.00;;;-0.20;99.90;;;;;;4964401;28;20106;-85
2021/12/09 09:32:15;;;;;;;1.00;1.00;;;-0.10;99.90;;;;;;4974139;28;20039;-85
2021/12/09 09:34:41;;;;;;;0.90;0.90;;;-0.10;99.90;;;;;;4967573;28;20054;-85
2021/12/09 09:37:07;;;;;;;0.90;0.90;;;-0.10;99.90;;;;;;4965014;28;20043;-85
2021/12/09 09:39:33;;;;;;;0.95;0.95;;;0.00;99.90;;;;;;4960302;28;20046;-84
2021/12/09 09:42:30;;;;;;;0.90;0.90;;;0.00;99.90;;;;;;4956679;28;20094;-85
2021/12/09 09:44:57;;;;;;;0.90;0.90;;;0.00;99.90;;;;;;4971557;28;20050;-84
2021/12/09 09:47:25;;;;;;;0.80;0.80;;;0.10;99.90;;;;;;4968130;28;20160;-84
2021/12/09 09:49:51;;;;;;;0.93;0.93;;;0.10;99.90;;;;;;4965431;28;20106;-84
2021/12/09 09:52:17;;;;;;;0.90;0.90;;;0.20;99.90;;;;;;4962713;28;20051;-83
2021/12/09 09:54:43;;;;;;;1.02;1.02;;;0.20;99.90;;;;;;4960811;28;20049;-86
2021/12/09 09:57:09;;;;;;;0.90;0.90;;;0.30;99.90;;;;;;4957908;28;20057;-83
2021/12/09 09:59:37;;;;;;;0.85;0.85;;;0.30;99.90;;;;;;4970491;28;20066;-84
2021/12/09 10:02:04;;;;;;;0.80;0.80;;;0.30;99.90;;;;;;4976356;28;20043;-85
2021/12/09 10:04:36;;;;;;;0.90;0.90;;;0.30;99.90;;;;;;4972408;28;20046;-84
2021/12/09 10:07:03;;;;;;;0.98;0.98;;;0.50;99.90;;;;;;4957582;28;20046;-84
2021/12/09 10:09:29;;;;;;;1.17;1.13;;;0.40;99.90;;;;;;4960688;28;20399;-84
2021/12/09 10:11:55;;;;;;;0.90;0.90;;;0.50;99.90;;;;;;4971949;28;20042;-84
2021/12/09 10:14:27;;;;;;;3.10;1.33;;;0.50;99.90;;;;;;4960496;28;20062;-84
2021/12/09 10:17:09;;;;;;;1.25;1.20;;;0.60;99.90;;;;;;4965600;28;20456;-84
2021/12/09 10:19:59;;;;;;;0.90;0.90;;;0.60;99.90;;;;;;4963011;28;20047;-83
2021/12/09 10:22:29;;;;;;;0.90;0.90;;;0.70;99.90;;;;;;4935595;28;20062;-84
2021/12/09 10:24:56;;;;;;;1.00;1.00;;;0.70;99.90;;;;;;4963849;28;20135;-84
2021/12/09 10:27:29;;;;;;;0.90;0.90;;;0.70;99.90;;;;;;4973353;28;20055;-84
2021/12/09 10:30:01;;;;;;;1.07;1.07;;;0.80;99.90;;;;;;4954344;28;20072;-84
2021/12/09 10:32:31;;;;;;;0.80;0.80;;;0.80;99.90;;;;;;4969402;28;20291;-84
2021/12/09 10:35:18;;;;;;;1.02;1.02;;;0.90;99.90;;;;;;4956029;28;20039;-83
2021/12/09 10:37:47;;;;;;;0.90;0.90;;;0.90;99.90;;;;;;4963043;28;20118;-83
2021/12/09 10:40:21;;;;;;;0.90;0.90;;;0.90;99.90;;;;;;4973534;28;20051;-84
2021/12/09 10:42:50;;;;;;;1.52;1.42;;;1.00;99.90;;;;;;4972104;28;20047;-83
2021/12/09 10:45:28;;;;;;;0.80;0.80;;;1.10;99.90;;;;;;4975059;28;20573;-83
2021/12/09 10:48:16;;;;;;;0.80;0.80;;;1.20;99.90;;;;;;4955473;28;20066;-83
2021/12/09 10:51:04;;;;;;;3.92;1.55;;;1.20;99.90;;;;;;4970976;28;20058;-84
2021/12/09 10:56:05;;;;;;;2.00;1.52;;;1.40;99.90;;;;;;4962809;28;20119;-84
2021/12/09 10:58:43;;;;;;;0.90;0.90;;;1.50;99.90;;;;;;4951688;28;20039;-84
2021/12/09 11:01:12;;;;;;;0.90;0.90;;;1.50;99.90;;;;;;4972655;28;20124;-84
2021/12/09 11:03:40;;;;;;;0.90;0.90;;;1.60;99.90;;;;;;4971896;28;20074;-84
2021/12/09 11:06:21;;;;;;;1.42;1.33;;;1.70;99.90;;;;;;4968133;28;20066;-84
2021/12/09 11:08:55;;;;;;;2.58;1.73;;;1.70;99.90;;;;;;4975636;28;20035;-84
2021/12/09 11:11:33;;;;;;;0.90;0.90;;;1.70;99.90;;;;;;4975663;28;20047;-85
2021/12/09 11:14:11;;;;;;;0.80;0.80;;;1.70;99.90;;;;;;4978921;28;20039;-83
2021/12/09 11:16:41;;;;;;;0.80;0.80;;;1.70;99.90;;;;;;4968279;28;20054;-84
2021/12/09 11:19:15;;;;;;;1.00;1.00;;;1.70;99.90;;;;;;4950020;28;20214;-84
2021/12/09 11:21:54;;;;;;;1.30;1.20;;;1.70;99.90;;;;;;4959194;28;20042;-84
2021/12/09 11:24:21;;;;;;;0.82;0.82;;;1.70;99.90;;;;;;4972250;28;20035;-83
2021/12/09 11:26:55;;;;;;;0.85;0.85;;;1.70;99.90;;;;;;4950749;28;20039;-84
2021/12/09 11:29:44;;;;;;;1.00;1.00;;;1.70;99.90;;;;;;4980759;28;20476;-84
2021/12/09 11:32:23;;;;;;;0.80;0.80;;;1.60;99.90;;;;;;4965159;28;20046;-84
2021/12/09 11:35:02;;;;;;;0.85;0.85;;;1.70;99.90;;;;;;4969905;28;20081;-84
2021/12/09 11:37:40;;;;;;;1.20;1.10;;;1.70;99.90;;;;;;4978257;28;20046;-84
2021/12/09 11:40:06;;;;;;;0.80;0.80;;;1.70;99.90;;;;;;4962534;28;20070;-83
2021/12/09 11:43:14;;;;;;;0.90;0.90;;;1.70;99.90;;;;;;4961816;28;20046;-84
2021/12/09 11:45:27;;;;;;;1.00;1.00;;;1.70;99.90;;;;;;4968364;28;20061;-84
2021/12/09 11:47:54;;;;;;;1.70;1.42;;;1.70;99.90;;;;;;4957625;28;20038;-84
2021/12/09 11:50:23;;;;;;;1.63;1.52;;;1.70;99.90;;;;;;4978835;28;20126;-84
2021/12/09 11:52:53;;;;;;;0.90;0.90;;;1.70;99.90;;;;;;4976111;28;20046;-83
2021/12/09 11:55:21;;;;;;;3.75;2.45;;;1.70;99.90;;;;;;4976478;28;20109;-84
2021/12/09 11:58:24;;;;;;;0.90;0.90;;;1.80;99.90;;;;;;4956763;28;20039;-84
2021/12/09 12:20:47;;;;;;;3.38;2.28;;;1.90;99.90;;;;;;4978632;28;20047;-84
2021/12/09 12:26:40;;;;;;;0.80;0.80;;;2.00;99.90;;;;;;4972950;28;20113;-84
2021/12/09 12:35:42;;;;;;;1.00;1.00;;;2.10;99.90;;;;;;4971203;28;20047;-85
2021/12/09 12:40:59;;;;;;;0.80;0.80;;;2.10;99.90;;;;;;4901416;29;20052;-84
2021/12/09 12:43:34;;;;;;;0.90;0.90;;;2.10;99.90;;;;;;4957410;28;20055;-83
2021/12/09 12:46:18;;;;;;;1.00;1.00;;;2.10;99.90;;;;;;4961021;28;20051;-84
2021/12/09 12:48:53;;;;;;;0.80;0.80;;;2.20;99.90;;;;;;4960618;28;20089;-83
2021/12/09 12:51:29;;;;;;;0.95;0.95;;;2.20;99.90;;;;;;4963115;28;20047;-85
2021/12/09 12:54:10;;;;;;;0.80;0.80;;;2.20;99.90;;;;;;4958634;28;20073;-84
2021/12/09 12:56:45;;;;;;;1.00;1.00;;;2.20;99.90;;;;;;4957884;28;20086;-83
2021/12/09 12:59:15;;;;;;;0.80;0.80;;;2.30;99.90;;;;;;4971821;28;20074;-83
2021/12/09 13:01:49;;;;;;;0.80;0.80;;;2.30;99.90;;;;;;4973528;28;20058;-83
2021/12/09 13:04:34;;;;;;;1.38;1.27;;;2.30;99.90;;;;;;4972362;28;20061;-83
2021/12/09 13:08:01;;;;;;;0.80;0.80;;;2.30;99.90;;;;;;4974811;28;20074;-84
2021/12/09 13:10:45;;;;;;;0.77;0.77;;;2.30;99.90;;;;;;4958516;28;20138;-83
2021/12/09 13:13:29;;;;;;;1.20;1.10;;;2.40;99.90;;;;;;4975301;28;20110;-83
2021/12/09 13:19:11;;;;;;;3.58;1.55;;;2.40;99.90;;;;;;4973769;28;20050;-82
2021/12/09 13:21:37;;;;;;;1.13;1.13;;;2.40;99.90;;;;;;4973132;28;20146;-83
2021/12/09 13:24:23;;;;;;;0.88;0.88;;;2.40;99.90;;;;;;4958474;28;20141;-84
2021/12/09 13:27:11;;;;;;;0.80;0.80;;;2.40;99.90;;;;;;4967676;28;20059;-83
2021/12/09 13:29:59;;;;;;;0.80;0.80;;;2.40;99.90;;;;;;4974765;28;20055;-82
2021/12/09 13:33:07;;;;;;;1.25;1.15;;;2.70;99.90;;;;;;4971087;28;20062;-84
2021/12/09 13:38:28;;;;;;;0.98;0.95;;;2.50;99.90;;;;;;4968985;28;20699;-86
2021/12/09 13:55:22;;;;;;;1.00;1.00;;;2.50;99.90;;;;;;4969457;28;20832;-83
2021/12/09 13:57:54;;;;;;;0.73;0.73;;;2.80;99.90;;;;;;4970206;28;20065;-83
2021/12/09 14:00:25;;;;;;;0.77;0.77;;;2.50;99.90;;;;;;4967104;28;20050;-83
2021/12/09 14:02:56;;;;;;;1.42;1.33;;;2.50;99.90;;;;;;4967385;28;20051;-85